createdAt,value
2023-05-10T00:02:14.476Z,101596.15
2023-05-10T00:04:42.892Z,101599.98
2023-05-10T00:07:11.779Z,101594.31
2023-05-10T00:09:40.370Z,101593.41
2023-05-10T00:12:08.755Z,101595.86
2023-05-10T00:14:37.124Z,101591.09
2023-05-10T00:17:05.781Z,101590.71
2023-05-10T00:20:14.145Z,101589.04
2023-05-10T00:23:22.449Z,101586.73
2023-05-10T00:26:30.475Z,101585.86
2023-05-10T00:29:38.689Z,101588.33
2023-05-10T00:32:46.846Z,101589.05
2023-05-10T00:35:15.811Z,101588.70
2023-05-10T00:37:44.674Z,101587.96
2023-05-10T00:40:13.748Z,101586.16
2023-05-10T00:42:42.965Z,101585.46
2023-05-10T00:45:14.917Z,101581.61
2023-05-10T00:47:43.930Z,101580.29
2023-05-10T00:50:12.450Z,101586.55
2023-05-10T00:52:40.995Z,101582.21
2023-05-10T00:55:10.894Z,101579.19
2023-05-10T00:57:39.652Z,101579.34
2023-05-10T01:00:08.890Z,101579.54
2023-05-10T01:02:37.924Z,101577.95
2023-05-10T01:05:07.352Z,101578.35
2023-05-10T01:07:35.686Z,101578.66
2023-05-10T01:10:05.988Z,101577.19
2023-05-10T01:12:36.647Z,101575.16
2023-05-10T01:15:06.506Z,101571.50
2023-05-10T01:17:36.145Z,101570.19
2023-05-10T01:20:04.835Z,101568.15
2023-05-10T01:22:42.513Z,101569.64
2023-05-10T01:25:10.911Z,101563.68
2023-05-10T01:27:58.143Z,101563.94
2023-05-10T01:30:29.996Z,101562.17
2023-05-10T01:33:09.814Z,101560.55
2023-05-10T01:35:58.087Z,101557.52
2023-05-10T01:39:06.101Z,101558.13
2023-05-10T01:41:54.495Z,101557.93
2023-05-10T01:48:47.428Z,101557.39
2023-05-10T01:51:55.641Z,101554.46
2023-05-10T01:55:04.016Z,101555.65
2023-05-10T02:01:47.406Z,101561.31
2023-05-10T02:04:55.552Z,101561.30
2023-05-10T02:08:03.669Z,101560.11
2023-05-10T02:11:11.816Z,101559.53
2023-05-10T02:14:19.960Z,101557.55
2023-05-10T02:17:28.128Z,101556.45
2023-05-10T02:20:36.260Z,101554.93
2023-05-10T02:23:44.333Z,101552.30
2023-05-10T02:26:52.714Z,101548.43
2023-05-10T02:30:01.037Z,101552.41
2023-05-10T02:33:10.753Z,101547.42
2023-05-10T02:36:25.041Z,101550.02
2023-05-10T02:38:54.500Z,101556.46
2023-05-10T02:42:04.397Z,101556.34
2023-05-10T02:45:12.528Z,101552.85
2023-05-10T02:48:26.671Z,101548.12
2023-05-10T02:51:34.747Z,101549.11
2023-05-10T02:54:43.188Z,101552.91
2023-05-10T02:57:51.231Z,101555.12
2023-05-10T03:00:59.581Z,101553.23
2023-05-10T03:04:07.574Z,101556.30
2023-05-10T03:21:49.025Z,101550.73
2023-05-10T03:24:18.222Z,101553.26
2023-05-10T03:26:47.422Z,101556.64
2023-05-10T03:29:20.357Z,101551.49
2023-05-10T03:31:48.856Z,101555.34
2023-05-10T03:34:17.517Z,101556.35
2023-05-10T03:36:46.911Z,101561.09
2023-05-10T03:39:55.194Z,101559.52
2023-05-10T03:43:03.814Z,101560.84
2023-05-10T03:46:12.084Z,101560.02
2023-05-10T03:48:40.658Z,101557.08
2023-05-10T03:54:41.475Z,101562.02
2023-05-10T03:57:10.736Z,101569.31
2023-05-10T04:00:19.377Z,101573.02
2023-05-10T04:03:29.485Z,101572.49
2023-05-10T04:06:02.332Z,101574.20
2023-05-10T04:08:30.999Z,101572.27
2023-05-10T04:11:08.934Z,101572.23
2023-05-10T04:13:37.649Z,101573.15
2023-05-10T04:16:06.228Z,101572.61
2023-05-10T04:18:34.553Z,101573.72
2023-05-10T04:21:42.802Z,101573.84
2023-05-10T04:24:11.173Z,101572.91
2023-05-10T04:26:40.305Z,101571.65
2023-05-10T04:29:08.764Z,101571.77
2023-05-10T04:31:37.580Z,101575.45
2023-05-10T04:34:06.801Z,101575.59
2023-05-10T04:36:36.974Z,101573.86
2023-05-10T04:39:05.349Z,101575.75
2023-05-10T04:41:34.047Z,101575.14
2023-05-10T04:44:02.410Z,101579.56
2023-05-10T04:46:30.659Z,101580.29
2023-05-10T04:48:59.318Z,101582.93
2023-05-10T04:51:28.066Z,101585.09
2023-05-10T04:54:05.159Z,101585.39
2023-05-10T04:56:35.097Z,101587.98
2023-05-10T04:59:03.925Z,101584.91
2023-05-10T05:01:32.400Z,101582.61
2023-05-10T05:04:00.890Z,101589.09
2023-05-10T05:06:29.478Z,101585.58
2023-05-10T05:08:57.678Z,101587.52
2023-05-10T05:11:26.910Z,101587.61
2023-05-10T05:13:55.470Z,101586.83
2023-05-10T05:16:24.029Z,101584.95
2023-05-10T05:18:52.844Z,101581.69
2023-05-10T05:21:21.407Z,101588.90
2023-05-10T05:23:49.502Z,101589.91
2023-05-10T05:26:38.100Z,101589.35
2023-05-10T05:29:26.145Z,101588.88
2023-05-10T05:32:14.336Z,101589.11
2023-05-10T05:34:42.617Z,101587.80
2023-05-10T05:37:13.771Z,101590.36
2023-05-10T05:39:42.549Z,101594.50
2023-05-10T05:42:11.538Z,101592.83
2023-05-10T05:44:39.773Z,101592.54
2023-05-10T05:47:08.507Z,101591.95
2023-05-10T05:49:36.781Z,101589.27
2023-05-10T05:52:05.460Z,101586.94
2023-05-10T05:54:33.849Z,101583.44
2023-05-10T05:57:02.142Z,101577.48
2023-05-10T05:59:30.709Z,101581.92
2023-05-10T06:01:59.103Z,101582.67
2023-05-10T06:04:27.360Z,101585.51
2023-05-10T06:06:55.686Z,101580.89
2023-05-10T06:09:25.673Z,101580.20
2023-05-10T06:11:54.151Z,101584.08
2023-05-10T06:14:22.531Z,101588.14
2023-05-10T06:16:51.250Z,101591.66
2023-05-10T06:19:19.612Z,101592.66
2023-05-10T06:21:47.874Z,101588.58
2023-05-10T06:24:16.153Z,101586.52
2023-05-10T06:26:44.739Z,101589.86
2023-05-10T06:29:13.327Z,101588.63
2023-05-10T06:31:42.241Z,101584.41
2023-05-10T06:34:10.587Z,101579.55
2023-05-10T06:36:38.742Z,101579.77
2023-05-10T06:39:07.045Z,101574.39
2023-05-10T06:41:35.532Z,101576.67
2023-05-10T06:44:04.929Z,101579.48
2023-05-10T06:46:33.539Z,101578.05
2023-05-10T06:49:01.803Z,101581.48
2023-05-10T06:51:30.173Z,101582.77
2023-05-10T06:53:58.861Z,101585.93
2023-05-10T06:56:27.280Z,101582.54
2023-05-10T06:58:55.633Z,101582.08
2023-05-10T07:01:24.404Z,101582.54
2023-05-10T07:03:53.302Z,101581.45
2023-05-10T07:06:32.375Z,101584.95
2023-05-10T07:09:02.568Z,101585.59
2023-05-10T07:11:30.937Z,101588.59
2023-05-10T07:13:59.317Z,101587.88
2023-05-10T07:16:28.033Z,101590.96
2023-05-10T07:18:56.583Z,101586.19
2023-05-10T07:21:29.973Z,101586.95
2023-05-10T07:23:58.882Z,101590.46
2023-05-10T07:26:27.153Z,101583.41
2023-05-10T07:28:55.841Z,101588.14
2023-05-10T07:31:24.123Z,101590.18
2023-05-10T07:33:52.500Z,101587.45
2023-05-10T07:36:21.087Z,101586.83
2023-05-10T07:38:50.700Z,101581.91
2023-05-10T07:41:18.827Z,101584.95
2023-05-10T07:43:47.131Z,101582.03
2023-05-10T07:46:15.362Z,101579.70
2023-05-10T07:48:43.913Z,101576.69
2023-05-10T07:51:12.627Z,101581.74
2023-05-10T07:53:41.076Z,101579.35
2023-05-10T07:56:22.801Z,101575.82
2023-05-10T07:58:51.479Z,101582.26
2023-05-10T08:01:19.856Z,101581.50
2023-05-10T08:03:48.760Z,101580.33
2023-05-10T08:06:18.252Z,101574.13
2023-05-10T08:08:51.787Z,101571.43
2023-05-10T08:11:20.429Z,101569.00
2023-05-10T08:13:49.582Z,101571.17
2023-05-10T08:16:18.476Z,101572.59
2023-05-10T08:18:48.202Z,101573.09
2023-05-10T08:21:16.919Z,101571.16
2023-05-10T08:23:45.499Z,101574.86
2023-05-10T08:26:14.083Z,101573.73
2023-05-10T08:28:42.257Z,101572.64
2023-05-10T08:31:10.651Z,101568.52
2023-05-10T08:33:39.595Z,101571.80
2023-05-10T08:36:08.225Z,101575.19
2023-05-10T08:38:36.397Z,101575.41
2023-05-10T08:41:05.908Z,101570.03
2023-05-10T08:43:36.992Z,101572.77
2023-05-10T08:46:06.646Z,101571.66
2023-05-10T08:48:35.703Z,101571.19
2023-05-10T08:51:04.952Z,101571.39
2023-05-10T08:53:34.655Z,101570.98
2023-05-10T08:56:03.577Z,101569.08
2023-05-10T08:58:32.138Z,101564.16
2023-05-10T09:01:00.949Z,101563.19
2023-05-10T09:03:29.108Z,101565.08
2023-05-10T09:05:57.941Z,101562.80
2023-05-10T09:08:27.296Z,101560.52
2023-05-10T09:10:55.992Z,101563.63
2023-05-10T09:13:25.299Z,101561.66
2023-05-10T09:15:54.280Z,101561.85
2023-05-10T09:18:22.743Z,101566.52
2023-05-10T09:20:51.354Z,101564.30
2023-05-10T09:23:19.793Z,101564.16
2023-05-10T09:25:48.207Z,101565.35
2023-05-10T09:28:16.694Z,101565.25
2023-05-10T09:30:45.147Z,101565.44
2023-05-10T09:33:13.360Z,101561.02
2023-05-10T09:35:42.245Z,101558.45
2023-05-10T09:38:11.750Z,101553.38
2023-05-10T09:40:39.940Z,101555.47
2023-05-10T09:43:08.792Z,101550.45
2023-05-10T09:45:39.021Z,101548.08
2023-05-10T09:48:07.831Z,101543.52
2023-05-10T09:50:36.422Z,101540.00
2023-05-10T09:53:05.139Z,101539.73
2023-05-10T09:55:39.980Z,101538.64
2023-05-10T09:58:12.011Z,101536.04
2023-05-10T10:00:41.933Z,101533.86
2023-05-10T10:03:17.696Z,101533.27
2023-05-10T10:05:47.352Z,101530.86
2023-05-10T10:08:16.332Z,101528.77
2023-05-10T10:10:47.912Z,101528.56
2023-05-10T10:13:16.733Z,101528.52
2023-05-10T10:15:47.121Z,101526.32
2023-05-10T10:18:18.927Z,101527.21
2023-05-10T10:20:47.599Z,101526.48
2023-05-10T10:23:17.531Z,101523.98
2023-05-10T10:25:49.182Z,101523.55
2023-05-10T10:28:36.805Z,101525.06
2023-05-10T10:31:17.228Z,101523.00
2023-05-10T10:33:55.996Z,101515.86
2023-05-10T10:36:24.473Z,101513.64
2023-05-10T10:38:53.063Z,101517.27
2023-05-10T10:41:45.108Z,101521.63
2023-05-10T10:44:26.387Z,101514.60
2023-05-10T10:47:09.715Z,101512.83
2023-05-10T10:49:58.470Z,101516.92
2023-05-10T10:52:33.888Z,101517.05
2023-05-10T10:55:06.589Z,101514.87
2023-05-10T10:57:44.398Z,101509.69
2023-05-10T11:00:20.756Z,101514.05
2023-05-10T11:02:50.501Z,101512.06
2023-05-10T11:05:34.850Z,101510.05
2023-05-10T11:08:20.465Z,101510.66
2023-05-10T11:11:08.617Z,101504.00
2023-05-10T11:13:49.961Z,101503.10
2023-05-10T11:16:21.132Z,101500.73
2023-05-10T11:18:59.077Z,101498.40
2023-05-10T11:21:27.672Z,101498.88
2023-05-10T11:23:57.889Z,101505.40
2023-05-10T11:26:27.289Z,101504.18
2023-05-10T11:28:59.983Z,101507.83
2023-05-10T11:31:29.174Z,101506.75
2023-05-10T11:33:58.486Z,101503.20
2023-05-10T11:36:30.759Z,101501.61
2023-05-10T11:38:59.342Z,101504.94
2023-05-10T11:41:29.380Z,101500.73
2023-05-10T11:43:58.355Z,101500.40
2023-05-10T11:46:28.229Z,101499.31
2023-05-10T11:49:05.758Z,101498.48
2023-05-10T11:51:36.309Z,101496.41
2023-05-10T11:54:12.009Z,101494.89
2023-05-10T11:56:41.348Z,101492.17
2023-05-10T11:59:09.604Z,101494.73
2023-05-10T12:01:38.269Z,101488.73
2023-05-10T12:04:07.188Z,101484.77
2023-05-10T12:06:41.753Z,101485.32
2023-05-10T12:09:10.465Z,101481.38
2023-05-10T12:11:43.495Z,101479.82
2023-05-10T12:14:13.015Z,101480.52
2023-05-10T12:16:41.411Z,101474.43
2023-05-10T12:19:10.177Z,101478.91
2023-05-10T12:21:40.120Z,101476.17
2023-05-10T12:24:08.782Z,101476.79
2023-05-10T12:26:57.646Z,101472.71
2023-05-10T12:29:45.997Z,101471.34
2023-05-10T12:32:34.565Z,101464.13
2023-05-10T12:35:04.738Z,101463.23
2023-05-10T12:37:36.858Z,101460.66
2023-05-10T12:40:06.677Z,101458.02
2023-05-10T12:42:35.959Z,101453.89
2023-05-10T12:45:04.949Z,101447.84
2023-05-10T12:47:33.877Z,101443.12
2023-05-10T12:50:02.848Z,101444.14
2023-05-10T12:52:32.857Z,101438.18
2023-05-10T12:55:01.968Z,101441.48
2023-05-10T12:57:30.541Z,101440.37
2023-05-10T12:59:59.129Z,101439.54
2023-05-10T13:02:27.608Z,101434.02
2023-05-10T13:04:56.662Z,101430.65
2023-05-10T13:07:25.291Z,101427.62
2023-05-10T13:09:53.570Z,101423.75
2023-05-10T13:12:21.945Z,101422.27
2023-05-10T13:14:50.326Z,101421.39
2023-05-10T13:17:19.070Z,101416.48
2023-05-10T13:19:47.412Z,101413.61
2023-05-10T13:22:18.714Z,101409.60
2023-05-10T13:24:52.144Z,101404.36
2023-05-10T13:27:20.520Z,101407.77
2023-05-10T13:29:49.261Z,101407.15
2023-05-10T13:32:18.113Z,101407.31
2023-05-10T13:34:46.373Z,101402.66
2023-05-10T13:37:14.855Z,101392.80
2023-05-10T13:39:43.545Z,101388.98
2023-05-10T13:46:24.444Z,101383.09
2023-05-10T13:48:52.941Z,101379.86
2023-05-10T13:52:01.031Z,101385.73
2023-05-10T13:55:09.267Z,101381.23
2023-05-10T13:58:17.504Z,101379.07
2023-05-10T14:01:22.763Z,101374.98
2023-05-10T14:03:51.401Z,101379.81
2023-05-10T14:06:59.878Z,101378.45
2023-05-10T14:10:08.204Z,101376.80
2023-05-10T14:13:21.996Z,101378.02
2023-05-10T14:16:30.303Z,101379.48
2023-05-10T14:19:39.049Z,101379.75
2023-05-10T14:22:47.169Z,101376.95
2023-05-10T14:29:27.987Z,101374.85
2023-05-10T14:32:36.357Z,101373.71
2023-05-10T14:35:05.259Z,101373.39
2023-05-10T14:37:33.839Z,101373.95
2023-05-10T14:40:02.328Z,101373.99
2023-05-10T14:42:30.916Z,101373.39
2023-05-10T14:44:59.530Z,101369.02
2023-05-10T14:47:27.717Z,101371.31
2023-05-10T14:49:56.055Z,101371.91
2023-05-10T14:52:24.836Z,101369.17
2023-05-10T14:54:53.384Z,101370.99
2023-05-10T14:57:21.709Z,101370.98
2023-05-10T15:00:10.254Z,101368.48
2023-05-10T15:03:03.929Z,101367.74
2023-05-10T15:06:00.270Z,101364.15
2023-05-10T15:08:49.070Z,101361.79
2023-05-10T15:11:37.378Z,101359.43
2023-05-10T15:14:25.717Z,101359.42
2023-05-10T15:17:13.863Z,101358.90
2023-05-10T15:20:04.304Z,101363.10
2023-05-10T15:22:52.874Z,101363.80
2023-05-10T15:25:41.424Z,101358.63
2023-05-10T15:28:29.641Z,101358.52
2023-05-10T15:31:18.196Z,101359.64
2023-05-10T15:33:46.551Z,101361.30
2023-05-10T15:36:14.984Z,101359.44
2023-05-10T15:38:43.103Z,101358.76
2023-05-10T15:41:11.581Z,101357.92
2023-05-10T15:43:39.974Z,101353.71
2023-05-10T15:46:08.718Z,101357.07
2023-05-10T15:48:37.240Z,101355.80
2023-05-10T15:51:05.715Z,101360.29
2023-05-10T15:53:34.245Z,101361.75
2023-05-10T15:56:02.686Z,101359.89
2023-05-10T15:58:31.163Z,101361.08
2023-05-10T16:00:59.732Z,101364.11
2023-05-10T16:03:28.520Z,101368.30
2023-05-10T16:05:56.821Z,101371.31
2023-05-10T16:08:25.551Z,101364.45
2023-05-10T16:10:54.303Z,101365.09
2023-05-10T16:13:22.780Z,101361.81
2023-05-10T16:15:51.162Z,101365.46
2023-05-10T16:18:19.956Z,101359.86
2023-05-10T16:20:48.240Z,101361.92
2023-05-10T16:23:16.513Z,101362.00
2023-05-10T16:25:45.399Z,101361.34
2023-05-10T16:28:13.578Z,101367.41
2023-05-10T16:30:42.271Z,101371.59
2023-05-10T16:33:10.987Z,101368.30
2023-05-10T16:35:59.607Z,101373.79
2023-05-10T16:38:48.293Z,101372.28
2023-05-10T16:41:36.848Z,101373.66
2023-05-10T16:44:23.574Z,101380.11
2023-05-10T16:47:39.434Z,101385.02
2023-05-10T16:50:28.018Z,101386.94
2023-05-10T16:53:16.522Z,101387.31
2023-05-10T16:56:04.873Z,101390.09
2023-05-10T16:58:34.741Z,101393.98
2023-05-10T17:01:02.989Z,101394.21
2023-05-10T17:03:31.432Z,101401.29
2023-05-10T17:06:36.894Z,101402.77
2023-05-10T17:09:06.096Z,101403.05
2023-05-10T17:11:34.605Z,101404.09
2023-05-10T17:14:03.053Z,101404.55
2023-05-10T17:16:31.704Z,101404.73
2023-05-10T17:19:00.240Z,101409.52
2023-05-10T17:22:08.169Z,101409.52
2023-05-10T17:25:16.557Z,101410.21
2023-05-10T17:28:25.079Z,101410.25
2023-05-10T17:31:36.203Z,101411.94
2023-05-10T17:34:05.756Z,101413.45
2023-05-10T17:36:34.554Z,101417.61
2023-05-10T17:39:02.729Z,101418.75
2023-05-10T17:41:31.310Z,101424.11
2023-05-10T17:43:59.879Z,101429.52
2023-05-10T17:46:28.480Z,101435.27
2023-05-10T17:48:57.067Z,101435.94
2023-05-10T17:51:25.555Z,101434.13
2023-05-10T17:53:53.930Z,101436.83
2023-05-10T17:56:25.885Z,101439.04
2023-05-10T17:58:54.589Z,101436.15
2023-05-10T18:01:22.968Z,101440.52
2023-05-10T18:03:52.364Z,101445.79
2023-05-10T18:06:20.851Z,101445.90
2023-05-10T18:09:28.957Z,101451.02
2023-05-10T18:15:25.928Z,101465.07
2023-05-10T18:18:36.063Z,101466.67
2023-05-10T18:21:44.335Z,101473.45
2023-05-10T18:24:54.603Z,101479.17
2023-05-10T18:28:07.913Z,101477.23
2023-05-10T18:30:36.209Z,101484.52
2023-05-10T18:33:05.110Z,101487.29
2023-05-10T18:35:35.838Z,101485.73
2023-05-10T18:38:04.283Z,101490.04
2023-05-10T18:41:12.596Z,101492.83
2023-05-10T18:43:42.924Z,101499.15
2023-05-10T18:46:11.135Z,101502.20
2023-05-10T18:48:39.744Z,101502.52
2023-05-10T18:51:08.106Z,101501.67
2023-05-10T18:53:36.742Z,101505.90
2023-05-10T18:56:05.235Z,101511.47
2023-05-10T18:58:35.852Z,101513.48
2023-05-10T19:01:04.348Z,101517.98
2023-05-10T19:03:32.739Z,101521.35
2023-05-10T19:06:01.025Z,101524.71
2023-05-10T19:08:29.897Z,101527.52
2023-05-10T19:10:58.330Z,101528.20
2023-05-10T19:13:28.505Z,101521.23
2023-05-10T19:16:05.503Z,101526.56
2023-05-10T19:18:34.259Z,101524.45
2023-05-10T19:21:04.796Z,101529.99
2023-05-10T19:23:33.798Z,101534.55
2023-05-10T19:26:02.583Z,101531.08
2023-05-10T19:28:31.683Z,101534.60
2023-05-10T19:31:00.512Z,101542.70
2023-05-10T19:33:29.254Z,101542.73
2023-05-10T19:35:57.438Z,101543.84
2023-05-10T19:38:26.033Z,101542.14
2023-05-10T19:41:00.193Z,101543.57
2023-05-10T19:43:29.574Z,101543.83
2023-05-10T19:45:59.447Z,101547.99
2023-05-10T19:48:28.241Z,101551.09
2023-05-10T19:51:00.590Z,101547.73
2023-05-10T19:53:29.671Z,101548.98
2023-05-10T19:56:03.221Z,101548.48
2023-05-10T19:58:31.897Z,101555.01
2023-05-10T20:01:00.443Z,101557.31
2023-05-10T20:03:29.326Z,101555.27
2023-05-10T20:06:15.905Z,101554.59
2023-05-10T20:08:44.156Z,101554.73
2023-05-10T20:11:13.362Z,101557.96
2023-05-10T20:13:41.632Z,101553.59
2023-05-10T20:16:10.044Z,101554.20
2023-05-10T20:18:38.712Z,101551.30
2023-05-10T20:21:07.187Z,101552.58
2023-05-10T20:23:35.459Z,101556.59
2023-05-10T20:26:03.957Z,101550.64
2023-05-10T20:28:32.232Z,101552.81
2023-05-10T20:31:02.193Z,101549.67
2023-05-10T20:33:31.020Z,101551.95
2023-05-10T20:35:59.505Z,101553.79
2023-05-10T20:38:27.796Z,101552.20
2023-05-10T20:41:15.993Z,101550.08
2023-05-10T20:44:05.704Z,101552.50
2023-05-10T20:46:54.157Z,101551.95
2023-05-10T20:49:44.826Z,101552.22
2023-05-10T20:52:18.365Z,101555.22
2023-05-10T20:55:08.759Z,101557.96
2023-05-10T20:57:56.843Z,101562.67
2023-05-10T21:00:45.591Z,101566.17
2023-05-10T21:03:33.701Z,101570.45
2023-05-10T21:06:21.737Z,101567.58
2023-05-10T21:09:09.997Z,101570.96
2023-05-10T21:11:58.448Z,101569.61
2023-05-10T21:14:47.923Z,101566.48
2023-05-10T21:17:36.328Z,101563.29
2023-05-10T21:20:25.433Z,101563.37
2023-05-10T21:23:14.214Z,101568.20
2023-05-10T21:26:02.131Z,101572.57
2023-05-10T21:28:50.885Z,101574.86
2023-05-10T21:31:38.995Z,101575.58
2023-05-10T21:34:52.683Z,101578.30
2023-05-10T21:37:40.703Z,101577.20
2023-05-10T21:40:29.470Z,101572.40
2023-05-10T21:43:17.657Z,101569.70
2023-05-10T21:46:07.611Z,101572.53
2023-05-10T21:48:55.854Z,101573.52
2023-05-10T21:51:44.294Z,101569.68
2023-05-10T21:54:32.434Z,101566.84
2023-05-10T21:57:21.712Z,101568.14
2023-05-10T22:00:10.427Z,101567.77
2023-05-10T22:02:40.803Z,101563.59
2023-05-10T22:05:29.443Z,101566.27
2023-05-10T22:08:17.384Z,101563.30
2023-05-10T22:11:05.931Z,101568.21
2023-05-10T22:13:57.295Z,101565.01
2023-05-10T22:16:49.632Z,101566.66
2023-05-10T22:19:37.944Z,101564.86
2023-05-10T22:22:26.335Z,101564.52
2023-05-10T22:25:14.547Z,101559.31
2023-05-10T22:28:03.491Z,101564.33
2023-05-10T22:36:53.533Z,101562.80
2023-05-10T22:39:21.911Z,101562.34
2023-05-10T22:41:49.937Z,101561.36
2023-05-10T22:44:18.456Z,101564.58
2023-05-10T22:46:46.791Z,101557.56
2023-05-10T22:49:15.070Z,101558.08
2023-05-10T22:51:43.807Z,101553.55
2023-05-10T22:54:33.132Z,101552.33
2023-05-10T22:57:22.792Z,101555.27
2023-05-10T23:00:11.420Z,101556.11
2023-05-10T23:03:00.342Z,101553.24
2023-05-10T23:05:48.926Z,101551.75
2023-05-10T23:08:37.064Z,101548.36
2023-05-10T23:11:25.658Z,101551.03
2023-05-10T23:14:13.964Z,101547.41
2023-05-10T23:17:02.414Z,101551.85
2023-05-10T23:19:50.767Z,101552.27
2023-05-10T23:22:39.417Z,101548.50
2023-05-10T23:25:27.789Z,101546.08
2023-05-10T23:28:15.965Z,101543.38
2023-05-10T23:31:03.960Z,101540.20
2023-05-10T23:33:32.122Z,101539.67
2023-05-10T23:36:00.527Z,101539.38
2023-05-10T23:38:28.889Z,101536.15
2023-05-10T23:40:57.574Z,101537.61
2023-05-10T23:43:25.957Z,101536.60
2023-05-10T23:45:58.010Z,101541.62
2023-05-10T23:48:26.355Z,101542.48
2023-05-10T23:50:54.807Z,101538.83
2023-05-10T23:53:23.064Z,101539.41
2023-05-10T23:55:51.297Z,101539.21
2023-05-10T23:58:39.586Z,101537.95
